sensor_id;sensor_type;location;lat;lon;timestamp;P1;durP1;ratioP1;P2;durP2;ratioP2
6825;SDS011;3451;52.476;13.316;2023-06-10T00:00:38;10.83;;;4.70;;
6825;SDS011;3451;52.476;13.316;2023-06-10T00:03:05;9.03;;;4.70;;
6825;SDS011;3451;52.476;13.316;2023-06-10T00:05:31;9.43;;;4.57;;
6825;SDS011;3451;52.476;13.316;2023-06-10T00:07:57;10.93;;;5.03;;
6825;SDS011;3451;52.476;13.316;2023-06-10T00:10:24;12.87;;;4.77;;
6825;SDS011;3451;52.476;13.316;2023-06-10T00:12:50;8.80;;;4.67;;
6825;SDS011;3451;52.476;13.316;2023-06-10T00:15:17;8.10;;;4.30;;
6825;SDS011;3451;52.476;13.316;2023-06-10T00:17:44;10.40;;;4.87;;
6825;SDS011;3451;52.476;13.316;2023-06-10T00:20:10;9.87;;;4.77;;
6825;SDS011;3451;52.476;13.316;2023-06-10T00:22:38;10.63;;;4.77;;
6825;SDS011;3451;52.476;13.316;2023-06-10T00:25:05;8.67;;;4.60;;
6825;SDS011;3451;52.476;13.316;2023-06-10T00:27:33;10.10;;;4.97;;
6825;SDS011;3451;52.476;13.316;2023-06-10T00:30:02;8.73;;;4.20;;
6825;SDS011;3451;52.476;13.316;2023-06-10T00:32:30;10.20;;;4.87;;
6825;SDS011;3451;52.476;13.316;2023-06-10T00:34:57;11.63;;;4.60;;
6825;SDS011;3451;52.476;13.316;2023-06-10T00:37:23;8.30;;;4.40;;
6825;SDS011;3451;52.476;13.316;2023-06-10T00:39:50;10.73;;;4.47;;
6825;SDS011;3451;52.476;13.316;2023-06-10T00:42:16;11.70;;;4.60;;
6825;SDS011;3451;52.476;13.316;2023-06-10T00:44:42;9.83;;;5.10;;
6825;SDS011;3451;52.476;13.316;2023-06-10T00:47:09;12.17;;;4.77;;
6825;SDS011;3451;52.476;13.316;2023-06-10T00:49:35;9.93;;;4.67;;
6825;SDS011;3451;52.476;13.316;2023-06-10T00:52:02;10.53;;;4.80;;
6825;SDS011;3451;52.476;13.316;2023-06-10T00:54:29;13.70;;;4.50;;
6825;SDS011;3451;52.476;13.316;2023-06-10T00:56:56;9.87;;;4.30;;
6825;SDS011;3451;52.476;13.316;2023-06-10T00:59:22;13.37;;;5.03;;
6825;SDS011;3451;52.476;13.316;2023-06-10T01:01:48;9.40;;;4.77;;
6825;SDS011;3451;52.476;13.316;2023-06-10T01:04:15;9.70;;;4.57;;
6825;SDS011;3451;52.476;13.316;2023-06-10T01:06:48;13.57;;;5.20;;
6825;SDS011;3451;52.476;13.316;2023-06-10T01:09:25;9.27;;;4.40;;
6825;SDS011;3451;52.476;13.316;2023-06-10T01:11:54;8.80;;;4.30;;
6825;SDS011;3451;52.476;13.316;2023-06-10T01:14:24;13.47;;;4.83;;
6825;SDS011;3451;52.476;13.316;2023-06-10T01:16:51;10.70;;;5.03;;
6825;SDS011;3451;52.476;13.316;2023-06-10T01:19:19;7.70;;;4.00;;
6825;SDS011;3451;52.476;13.316;2023-06-10T01:21:45;12.27;;;5.23;;
6825;SDS011;3451;52.476;13.316;2023-06-10T01:24:15;10.83;;;4.33;;
6825;SDS011;3451;52.476;13.316;2023-06-10T01:26:44;12.87;;;4.30;;
6825;SDS011;3451;52.476;13.316;2023-06-10T01:29:14;9.63;;;4.70;;
6825;SDS011;3451;52.476;13.316;2023-06-10T01:31:49;13.00;;;4.93;;
6825;SDS011;3451;52.476;13.316;2023-06-10T01:34:17;11.63;;;4.50;;
6825;SDS011;3451;52.476;13.316;2023-06-10T01:36:46;9.43;;;4.53;;
6825;SDS011;3451;52.476;13.316;2023-06-10T01:39:14;15.23;;;4.30;;
6825;SDS011;3451;52.476;13.316;2023-06-10T01:41:41;10.20;;;4.73;;
6825;SDS011;3451;52.476;13.316;2023-06-10T01:44:07;10.70;;;4.67;;
6825;SDS011;3451;52.476;13.316;2023-06-10T01:46:34;11.47;;;4.53;;
6825;SDS011;3451;52.476;13.316;2023-06-10T01:49:00;12.13;;;4.50;;
6825;SDS011;3451;52.476;13.316;2023-06-10T01:51:27;9.13;;;4.00;;
6825;SDS011;3451;52.476;13.316;2023-06-10T01:53:53;11.47;;;4.63;;
6825;SDS011;3451;52.476;13.316;2023-06-10T01:56:21;11.03;;;4.40;;
6825;SDS011;3451;52.476;13.316;2023-06-10T01:58:47;10.20;;;4.33;;
6825;SDS011;3451;52.476;13.316;2023-06-10T02:01:13;9.93;;;4.50;;
6825;SDS011;3451;52.476;13.316;2023-06-10T02:03:40;10.17;;;4.50;;
6825;SDS011;3451;52.476;13.316;2023-06-10T02:06:07;8.93;;;4.33;;
6825;SDS011;3451;52.476;13.316;2023-06-10T02:08:33;13.57;;;5.17;;
6825;SDS011;3451;52.476;13.316;2023-06-10T02:10:59;12.53;;;4.73;;
6825;SDS011;3451;52.476;13.316;2023-06-10T02:13:26;10.00;;;4.47;;
6825;SDS011;3451;52.476;13.316;2023-06-10T02:15:52;9.93;;;4.63;;
6825;SDS011;3451;52.476;13.316;2023-06-10T02:18:20;9.07;;;4.70;;
6825;SDS011;3451;52.476;13.316;2023-06-10T02:20:46;14.00;;;4.80;;
6825;SDS011;3451;52.476;13.316;2023-06-10T02:23:13;14.20;;;5.03;;
6825;SDS011;3451;52.476;13.316;2023-06-10T02:25:39;11.17;;;4.90;;
6825;SDS011;3451;52.476;13.316;2023-06-10T02:28:06;10.50;;;4.63;;
6825;SDS011;3451;52.476;13.316;2023-06-10T02:30:32;7.90;;;4.60;;
6825;SDS011;3451;52.476;13.316;2023-06-10T02:32:58;16.30;;;4.97;;
6825;SDS011;3451;52.476;13.316;2023-06-10T02:35:25;9.97;;;4.83;;
6825;SDS011;3451;52.476;13.316;2023-06-10T02:37:51;8.93;;;4.30;;
6825;SDS011;3451;52.476;13.316;2023-06-10T02:40:18;10.93;;;4.63;;
6825;SDS011;3451;52.476;13.316;2023-06-10T02:42:44;13.80;;;4.80;;
6825;SDS011;3451;52.476;13.316;2023-06-10T02:45:10;8.40;;;4.50;;
6825;SDS011;3451;52.476;13.316;2023-06-10T02:47:37;12.50;;;4.67;;
6825;SDS011;3451;52.476;13.316;2023-06-10T02:50:04;9.60;;;4.53;;
6825;SDS011;3451;52.476;13.316;2023-06-10T02:52:30;10.87;;;4.50;;
6825;SDS011;3451;52.476;13.316;2023-06-10T02:54:57;11.27;;;5.70;;
6825;SDS011;3451;52.476;13.316;2023-06-10T02:57:24;9.77;;;5.00;;
6825;SDS011;3451;52.476;13.316;2023-06-10T02:59:50;9.13;;;4.87;;
6825;SDS011;3451;52.476;13.316;2023-06-10T03:02:17;11.37;;;4.97;;
6825;SDS011;3451;52.476;13.316;2023-06-10T03:04:43;9.77;;;4.93;;
6825;SDS011;3451;52.476;13.316;2023-06-10T03:07:11;13.87;;;4.93;;
6825;SDS011;3451;52.476;13.316;2023-06-10T03:09:37;10.60;;;4.67;;
6825;SDS011;3451;52.476;13.316;2023-06-10T03:12:03;13.97;;;4.77;;
6825;SDS011;3451;52.476;13.316;2023-06-10T03:14:31;10.80;;;4.80;;
6825;SDS011;3451;52.476;13.316;2023-06-10T03:16:57;8.10;;;5.00;;
6825;SDS011;3451;52.476;13.316;2023-06-10T03:19:23;9.97;;;5.00;;
6825;SDS011;3451;52.476;13.316;2023-06-10T03:21:57;9.23;;;4.77;;
6825;SDS011;3451;52.476;13.316;2023-06-10T03:24:23;11.77;;;4.77;;
6825;SDS011;3451;52.476;13.316;2023-06-10T03:26:50;11.17;;;4.90;;
6825;SDS011;3451;52.476;13.316;2023-06-10T03:29:16;10.00;;;4.80;;
6825;SDS011;3451;52.476;13.316;2023-06-10T03:31:42;10.23;;;5.00;;
6825;SDS011;3451;52.476;13.316;2023-06-10T03:34:09;11.10;;;4.87;;
6825;SDS011;3451;52.476;13.316;2023-06-10T03:36:35;13.30;;;5.57;;
6825;SDS011;3451;52.476;13.316;2023-06-10T03:39:03;11.93;;;5.67;;
6825;SDS011;3451;52.476;13.316;2023-06-10T03:41:31;8.00;;;4.63;;
6825;SDS011;3451;52.476;13.316;2023-06-10T03:43:58;10.93;;;5.37;;
6825;SDS011;3451;52.476;13.316;2023-06-10T03:46:24;14.30;;;5.23;;
6825;SDS011;3451;52.476;13.316;2023-06-10T03:48:51;13.20;;;5.53;;
6825;SDS011;3451;52.476;13.316;2023-06-10T03:51:17;11.87;;;5.10;;
6825;SDS011;3451;52.476;13.316;2023-06-10T03:53:43;9.20;;;4.90;;
6825;SDS011;3451;52.476;13.316;2023-06-10T03:56:09;8.67;;;5.40;;
6825;SDS011;3451;52.476;13.316;2023-06-10T03:58:36;12.40;;;5.47;;
6825;SDS011;3451;52.476;13.316;2023-06-10T04:01:02;11.60;;;5.83;;
6825;SDS011;3451;52.476;13.316;2023-06-10T04:03:29;12.77;;;5.43;;
6825;SDS011;3451;52.476;13.316;2023-06-10T04:05:56;12.37;;;5.43;;
6825;SDS011;3451;52.476;13.316;2023-06-10T04:08:22;9.10;;;5.17;;
6825;SDS011;3451;52.476;13.316;2023-06-10T04:10:49;9.70;;;5.37;;
6825;SDS011;3451;52.476;13.316;2023-06-10T04:13:16;9.27;;;5.30;;
6825;SDS011;3451;52.476;13.316;2023-06-10T04:15:42;12.27;;;5.23;;
6825;SDS011;3451;52.476;13.316;2023-06-10T04:18:08;11.97;;;5.47;;
6825;SDS011;3451;52.476;13.316;2023-06-10T04:20:35;12.43;;;5.77;;
6825;SDS011;3451;52.476;13.316;2023-06-10T04:23:01;10.03;;;5.23;;
6825;SDS011;3451;52.476;13.316;2023-06-10T04:25:27;9.73;;;5.17;;
6825;SDS011;3451;52.476;13.316;2023-06-10T04:27:54;10.07;;;5.37;;
6825;SDS011;3451;52.476;13.316;2023-06-10T04:30:21;12.57;;;5.57;;
6825;SDS011;3451;52.476;13.316;2023-06-10T04:32:47;9.33;;;5.10;;
6825;SDS011;3451;52.476;13.316;2023-06-10T04:35:14;9.90;;;5.67;;
6825;SDS011;3451;52.476;13.316;2023-06-10T04:37:41;10.10;;;5.30;;
6825;SDS011;3451;52.476;13.316;2023-06-10T04:40:07;9.90;;;5.70;;
6825;SDS011;3451;52.476;13.316;2023-06-10T04:42:34;11.40;;;5.80;;
6825;SDS011;3451;52.476;13.316;2023-06-10T04:45:00;10.13;;;5.60;;
6825;SDS011;3451;52.476;13.316;2023-06-10T04:47:27;15.30;;;5.87;;
6825;SDS011;3451;52.476;13.316;2023-06-10T04:49:53;13.67;;;6.20;;
6825;SDS011;3451;52.476;13.316;2023-06-10T04:52:19;10.93;;;5.73;;
6825;SDS011;3451;52.476;13.316;2023-06-10T04:54:46;10.77;;;5.30;;
6825;SDS011;3451;52.476;13.316;2023-06-10T04:57:12;9.43;;;6.03;;
6825;SDS011;3451;52.476;13.316;2023-06-10T04:59:39;12.50;;;5.80;;
6825;SDS011;3451;52.476;13.316;2023-06-10T05:02:05;12.33;;;5.70;;
6825;SDS011;3451;52.476;13.316;2023-06-10T05:04:32;12.03;;;6.00;;
6825;SDS011;3451;52.476;13.316;2023-06-10T05:06:58;12.43;;;6.10;;
6825;SDS011;3451;52.476;13.316;2023-06-10T05:09:24;11.50;;;5.73;;
6825;SDS011;3451;52.476;13.316;2023-06-10T05:11:52;16.10;;;6.30;;
6825;SDS011;3451;52.476;13.316;2023-06-10T05:14:20;12.23;;;6.00;;
6825;SDS011;3451;52.476;13.316;2023-06-10T05:16:50;9.03;;;5.43;;
6825;SDS011;3451;52.476;13.316;2023-06-10T05:19:16;11.70;;;6.00;;
6825;SDS011;3451;52.476;13.316;2023-06-10T05:21:43;12.20;;;6.23;;
6825;SDS011;3451;52.476;13.316;2023-06-10T05:24:10;11.17;;;5.90;;
6825;SDS011;3451;52.476;13.316;2023-06-10T05:26:37;9.53;;;5.73;;
6825;SDS011;3451;52.476;13.316;2023-06-10T05:29:04;13.10;;;6.00;;
6825;SDS011;3451;52.476;13.316;2023-06-10T05:31:31;8.57;;;5.60;;
6825;SDS011;3451;52.476;13.316;2023-06-10T05:33:57;9.87;;;6.27;;
6825;SDS011;3451;52.476;13.316;2023-06-10T05:36:24;10.43;;;5.70;;
6825;SDS011;3451;52.476;13.316;2023-06-10T05:38:52;9.80;;;5.57;;
6825;SDS011;3451;52.476;13.316;2023-06-10T05:41:18;10.33;;;6.00;;
6825;SDS011;3451;52.476;13.316;2023-06-10T05:43:44;11.33;;;5.97;;
6825;SDS011;3451;52.476;13.316;2023-06-10T05:46:11;9.87;;;5.47;;
6825;SDS011;3451;52.476;13.316;2023-06-10T05:48:37;12.40;;;6.07;;
6825;SDS011;3451;52.476;13.316;2023-06-10T05:51:03;9.97;;;6.00;;
6825;SDS011;3451;52.476;13.316;2023-06-10T05:53:31;12.53;;;5.90;;
6825;SDS011;3451;52.476;13.316;2023-06-10T05:55:57;13.40;;;6.27;;
6825;SDS011;3451;52.476;13.316;2023-06-10T05:58:24;11.53;;;6.30;;
6825;SDS011;3451;52.476;13.316;2023-06-10T06:00:50;10.60;;;6.00;;
6825;SDS011;3451;52.476;13.316;2023-06-10T06:03:17;11.83;;;5.80;;
6825;SDS011;3451;52.476;13.316;2023-06-10T06:05:43;10.83;;;6.03;;
6825;SDS011;3451;52.476;13.316;2023-06-10T06:08:10;14.67;;;6.07;;
6825;SDS011;3451;52.476;13.316;2023-06-10T06:10:37;11.57;;;6.33;;
6825;SDS011;3451;52.476;13.316;2023-06-10T06:13:03;9.80;;;5.67;;
6825;SDS011;3451;52.476;13.316;2023-06-10T06:15:29;9.20;;;6.03;;
6825;SDS011;3451;52.476;13.316;2023-06-10T06:17:56;9.03;;;5.67;;
6825;SDS011;3451;52.476;13.316;2023-06-10T06:20:22;11.00;;;6.13;;
6825;SDS011;3451;52.476;13.316;2023-06-10T06:22:49;11.03;;;5.20;;
6825;SDS011;3451;52.476;13.316;2023-06-10T06:25:15;13.03;;;6.00;;
6825;SDS011;3451;52.476;13.316;2023-06-10T06:27:41;10.63;;;5.70;;
6825;SDS011;3451;52.476;13.316;2023-06-10T06:30:08;11.73;;;5.97;;
6825;SDS011;3451;52.476;13.316;2023-06-10T06:32:34;9.80;;;5.70;;
6825;SDS011;3451;52.476;13.316;2023-06-10T06:35:01;20.70;;;6.03;;
6825;SDS011;3451;52.476;13.316;2023-06-10T06:37:27;9.63;;;5.50;;
6825;SDS011;3451;52.476;13.316;2023-06-10T06:39:53;13.73;;;6.50;;
6825;SDS011;3451;52.476;13.316;2023-06-10T06:42:20;10.47;;;6.10;;
6825;SDS011;3451;52.476;13.316;2023-06-10T06:44:46;11.23;;;6.63;;
6825;SDS011;3451;52.476;13.316;2023-06-10T06:47:13;10.73;;;5.70;;
6825;SDS011;3451;52.476;13.316;2023-06-10T06:49:39;12.87;;;5.90;;
6825;SDS011;3451;52.476;13.316;2023-06-10T06:52:06;8.57;;;5.90;;
6825;SDS011;3451;52.476;13.316;2023-06-10T06:54:32;9.17;;;5.43;;
6825;SDS011;3451;52.476;13.316;2023-06-10T06:56:58;9.37;;;5.87;;
6825;SDS011;3451;52.476;13.316;2023-06-10T06:59:25;10.47;;;5.67;;
6825;SDS011;3451;52.476;13.316;2023-06-10T07:01:51;11.97;;;6.10;;
6825;SDS011;3451;52.476;13.316;2023-06-10T07:04:20;9.60;;;6.20;;
6825;SDS011;3451;52.476;13.316;2023-06-10T07:06:48;7.77;;;6.10;;
6825;SDS011;3451;52.476;13.316;2023-06-10T07:09:14;11.10;;;6.60;;
6825;SDS011;3451;52.476;13.316;2023-06-10T07:11:41;12.30;;;6.90;;
6825;SDS011;3451;52.476;13.316;2023-06-10T07:14:07;11.17;;;6.53;;
6825;SDS011;3451;52.476;13.316;2023-06-10T07:16:34;12.30;;;6.60;;
6825;SDS011;3451;52.476;13.316;2023-06-10T07:19:00;9.17;;;6.47;;
6825;SDS011;3451;52.476;13.316;2023-06-10T07:21:30;11.27;;;6.20;;
6825;SDS011;3451;52.476;13.316;2023-06-10T07:23:56;11.85;;;6.07;;
6825;SDS011;3451;52.476;13.316;2023-06-10T07:26:23;7.95;;;5.50;;
6825;SDS011;3451;52.476;13.316;2023-06-10T07:28:49;10.70;;;5.80;;
6825;SDS011;3451;52.476;13.316;2023-06-10T07:31:15;8.60;;;5.72;;
6825;SDS011;3451;52.476;13.316;2023-06-10T07:33:41;9.05;;;5.47;;
6825;SDS011;3451;52.476;13.316;2023-06-10T07:36:09;6.93;;;4.93;;
6825;SDS011;3451;52.476;13.316;2023-06-10T07:38:36;9.85;;;4.50;;
6825;SDS011;3451;52.476;13.316;2023-06-10T07:41:02;8.40;;;5.18;;
6825;SDS011;3451;52.476;13.316;2023-06-10T07:43:29;7.40;;;5.15;;
6825;SDS011;3451;52.476;13.316;2023-06-10T07:45:55;8.57;;;4.97;;
6825;SDS011;3451;52.476;13.316;2023-06-10T07:48:22;8.73;;;5.20;;
6825;SDS011;3451;52.476;13.316;2023-06-10T07:50:48;8.88;;;5.10;;
6825;SDS011;3451;52.476;13.316;2023-06-10T07:53:14;10.45;;;4.85;;
6825;SDS011;3451;52.476;13.316;2023-06-10T07:55:41;7.45;;;5.53;;
6825;SDS011;3451;52.476;13.316;2023-06-10T07:58:07;7.40;;;4.88;;
6825;SDS011;3451;52.476;13.316;2023-06-10T08:00:33;7.25;;;5.30;;
6825;SDS011;3451;52.476;13.316;2023-06-10T08:02:59;8.75;;;5.88;;
6825;SDS011;3451;52.476;13.316;2023-06-10T08:05:26;10.82;;;5.20;;
6825;SDS011;3451;52.476;13.316;2023-06-10T08:07:53;9.23;;;5.93;;
6825;SDS011;3451;52.476;13.316;2023-06-10T08:10:19;10.23;;;5.70;;
6825;SDS011;3451;52.476;13.316;2023-06-10T08:12:45;10.07;;;5.70;;
6825;SDS011;3451;52.476;13.316;2023-06-10T08:15:12;10.50;;;6.00;;
6825;SDS011;3451;52.476;13.316;2023-06-10T08:17:38;12.65;;;5.93;;
6825;SDS011;3451;52.476;13.316;2023-06-10T08:20:05;11.35;;;6.40;;
6825;SDS011;3451;52.476;13.316;2023-06-10T08:22:32;8.93;;;6.47;;
6825;SDS011;3451;52.476;13.316;2023-06-10T08:24:59;9.52;;;6.45;;
6825;SDS011;3451;52.476;13.316;2023-06-10T08:27:26;9.27;;;6.40;;
6825;SDS011;3451;52.476;13.316;2023-06-10T08:29:52;7.93;;;5.80;;
6825;SDS011;3451;52.476;13.316;2023-06-10T08:32:18;7.30;;;5.20;;
6825;SDS011;3451;52.476;13.316;2023-06-10T08:34:45;11.18;;;5.90;;
6825;SDS011;3451;52.476;13.316;2023-06-10T08:37:11;14.02;;;7.45;;
6825;SDS011;3451;52.476;13.316;2023-06-10T08:39:37;16.02;;;7.57;;
6825;SDS011;3451;52.476;13.316;2023-06-10T08:44:30;13.82;;;7.40;;
6825;SDS011;3451;52.476;13.316;2023-06-10T08:47:01;11.07;;;6.90;;
6825;SDS011;3451;52.476;13.316;2023-06-10T08:49:32;10.10;;;6.25;;
6825;SDS011;3451;52.476;13.316;2023-06-10T08:52:00;10.50;;;6.43;;
6825;SDS011;3451;52.476;13.316;2023-06-10T08:54:30;9.40;;;6.32;;
6825;SDS011;3451;52.476;13.316;2023-06-10T08:56:58;12.80;;;6.55;;
6825;SDS011;3451;52.476;13.316;2023-06-10T08:59:26;7.78;;;6.32;;
6825;SDS011;3451;52.476;13.316;2023-06-10T09:01:52;8.65;;;5.75;;
6825;SDS011;3451;52.476;13.316;2023-06-10T09:04:19;14.15;;;6.72;;
6825;SDS011;3451;52.476;13.316;2023-06-10T09:06:47;8.15;;;6.45;;
6825;SDS011;3451;52.476;13.316;2023-06-10T09:09:15;10.90;;;6.03;;
6825;SDS011;3451;52.476;13.316;2023-06-10T09:11:42;13.43;;;6.88;;
6825;SDS011;3451;52.476;13.316;2023-06-10T09:14:08;9.40;;;5.57;;
6825;SDS011;3451;52.476;13.316;2023-06-10T09:16:37;10.38;;;6.43;;
6825;SDS011;3451;52.476;13.316;2023-06-10T09:19:04;10.50;;;6.50;;
6825;SDS011;3451;52.476;13.316;2023-06-10T09:21:34;11.43;;;6.47;;
6825;SDS011;3451;52.476;13.316;2023-06-10T09:24:02;9.88;;;5.80;;
6825;SDS011;3451;52.476;13.316;2023-06-10T09:26:28;9.52;;;6.18;;
6825;SDS011;3451;52.476;13.316;2023-06-10T09:29:05;9.07;;;6.30;;
6825;SDS011;3451;52.476;13.316;2023-06-10T09:31:34;13.57;;;6.40;;
6825;SDS011;3451;52.476;13.316;2023-06-10T09:34:11;10.95;;;5.90;;
6825;SDS011;3451;52.476;13.316;2023-06-10T09:36:38;10.93;;;6.30;;
6825;SDS011;3451;52.476;13.316;2023-06-10T09:39:13;8.85;;;5.78;;
6825;SDS011;3451;52.476;13.316;2023-06-10T09:41:41;12.25;;;5.43;;
6825;SDS011;3451;52.476;13.316;2023-06-10T09:44:11;9.00;;;5.55;;
6825;SDS011;3451;52.476;13.316;2023-06-10T09:46:37;9.80;;;6.18;;
6825;SDS011;3451;52.476;13.316;2023-06-10T09:49:03;13.30;;;5.90;;
6825;SDS011;3451;52.476;13.316;2023-06-10T09:51:30;12.80;;;6.20;;
6825;SDS011;3451;52.476;13.316;2023-06-10T09:53:56;8.30;;;5.57;;
6825;SDS011;3451;52.476;13.316;2023-06-10T09:56:32;12.27;;;5.85;;
6825;SDS011;3451;52.476;13.316;2023-06-10T09:58:58;9.07;;;5.97;;
6825;SDS011;3451;52.476;13.316;2023-06-10T10:01:24;10.93;;;5.97;;
6825;SDS011;3451;52.476;13.316;2023-06-10T10:03:51;13.68;;;5.60;;
6825;SDS011;3451;52.476;13.316;2023-06-10T10:06:18;10.80;;;5.80;;
6825;SDS011;3451;52.476;13.316;2023-06-10T10:08:46;11.25;;;6.60;;
6825;SDS011;3451;52.476;13.316;2023-06-10T10:11:14;10.70;;;6.13;;
6825;SDS011;3451;52.476;13.316;2023-06-10T10:13:40;10.98;;;6.32;;
6825;SDS011;3451;52.476;13.316;2023-06-10T10:16:09;8.63;;;5.72;;
6825;SDS011;3451;52.476;13.316;2023-06-10T10:18:38;9.82;;;6.18;;
6825;SDS011;3451;52.476;13.316;2023-06-10T10:21:07;11.43;;;6.55;;
6825;SDS011;3451;52.476;13.316;2023-06-10T10:23:39;10.25;;;6.07;;
6825;SDS011;3451;52.476;13.316;2023-06-10T10:26:07;8.75;;;6.13;;
6825;SDS011;3451;52.476;13.316;2023-06-10T10:28:37;11.50;;;6.72;;
6825;SDS011;3451;52.476;13.316;2023-06-10T10:31:07;16.80;;;6.63;;
6825;SDS011;3451;52.476;13.316;2023-06-10T10:33:40;8.77;;;6.20;;
6825;SDS011;3451;52.476;13.316;2023-06-10T10:36:08;7.60;;;6.40;;
6825;SDS011;3451;52.476;13.316;2023-06-10T10:38:35;15.87;;;6.63;;
6825;SDS011;3451;52.476;13.316;2023-06-10T10:41:02;10.50;;;6.40;;
6825;SDS011;3451;52.476;13.316;2023-06-10T10:43:28;10.80;;;5.80;;
6825;SDS011;3451;52.476;13.316;2023-06-10T10:46:01;12.50;;;6.00;;
6825;SDS011;3451;52.476;13.316;2023-06-10T10:48:37;8.80;;;5.70;;
6825;SDS011;3451;52.476;13.316;2023-06-10T10:51:03;10.77;;;5.57;;
6825;SDS011;3451;52.476;13.316;2023-06-10T10:53:29;7.93;;;5.33;;
6825;SDS011;3451;52.476;13.316;2023-06-10T10:56:00;9.77;;;4.97;;
6825;SDS011;3451;52.476;13.316;2023-06-10T10:58:30;5.33;;;4.50;;
6825;SDS011;3451;52.476;13.316;2023-06-10T11:00:58;5.43;;;4.17;;
6825;SDS011;3451;52.476;13.316;2023-06-10T11:03:28;7.57;;;3.90;;
6825;SDS011;3451;52.476;13.316;2023-06-10T11:05:56;6.97;;;4.40;;
6825;SDS011;3451;52.476;13.316;2023-06-10T11:10:58;7.27;;;3.93;;
6825;SDS011;3451;52.476;13.316;2023-06-10T11:13:25;5.63;;;4.23;;
6825;SDS011;3451;52.476;13.316;2023-06-10T11:15:53;6.30;;;4.03;;
6825;SDS011;3451;52.476;13.316;2023-06-10T11:26:08;7.40;;;4.47;;
6825;SDS011;3451;52.476;13.316;2023-06-10T11:28:35;5.57;;;4.20;;
6825;SDS011;3451;52.476;13.316;2023-06-10T11:31:01;5.20;;;4.27;;
6825;SDS011;3451;52.476;13.316;2023-06-10T11:33:28;8.93;;;5.00;;
6825;SDS011;3451;52.476;13.316;2023-06-10T11:35:55;14.77;;;5.20;;
6825;SDS011;3451;52.476;13.316;2023-06-10T11:38:21;5.83;;;4.40;;
6825;SDS011;3451;52.476;13.316;2023-06-10T11:40:48;7.17;;;4.97;;
6825;SDS011;3451;52.476;13.316;2023-06-10T11:43:15;5.20;;;4.70;;
6825;SDS011;3451;52.476;13.316;2023-06-10T11:45:43;8.33;;;4.80;;
6825;SDS011;3451;52.476;13.316;2023-06-10T11:48:09;6.60;;;5.07;;
6825;SDS011;3451;52.476;13.316;2023-06-10T11:50:36;7.87;;;5.60;;
6825;SDS011;3451;52.476;13.316;2023-06-10T11:53:03;6.93;;;5.37;;
6825;SDS011;3451;52.476;13.316;2023-06-10T11:55:42;7.47;;;5.47;;
6825;SDS011;3451;52.476;13.316;2023-06-10T11:58:12;6.83;;;5.50;;
6825;SDS011;3451;52.476;13.316;2023-06-10T12:00:49;9.23;;;5.60;;
6825;SDS011;3451;52.476;13.316;2023-06-10T12:03:16;7.47;;;6.00;;
6825;SDS011;3451;52.476;13.316;2023-06-10T12:06:04;8.23;;;5.63;;
6825;SDS011;3451;52.476;13.316;2023-06-10T12:08:29;8.30;;;4.67;;
6825;SDS011;3451;52.476;13.316;2023-06-10T12:10:56;8.10;;;5.10;;
6825;SDS011;3451;52.476;13.316;2023-06-10T12:13:26;8.40;;;4.73;;
6825;SDS011;3451;52.476;13.316;2023-06-10T12:15:53;6.87;;;4.93;;
6825;SDS011;3451;52.476;13.316;2023-06-10T12:18:20;8.53;;;5.70;;
6825;SDS011;3451;52.476;13.316;2023-06-10T12:20:46;6.22;;;5.13;;
6825;SDS011;3451;52.476;13.316;2023-06-10T12:23:13;7.72;;;5.70;;
6825;SDS011;3451;52.476;13.316;2023-06-10T12:25:43;8.13;;;5.40;;
6825;SDS011;3451;52.476;13.316;2023-06-10T12:28:15;13.18;;;5.72;;
6825;SDS011;3451;52.476;13.316;2023-06-10T12:30:41;6.97;;;5.28;;
6825;SDS011;3451;52.476;13.316;2023-06-10T12:33:15;9.20;;;5.60;;
6825;SDS011;3451;52.476;13.316;2023-06-10T12:35:46;5.70;;;4.97;;
6825;SDS011;3451;52.476;13.316;2023-06-10T12:38:14;6.87;;;5.53;;
6825;SDS011;3451;52.476;13.316;2023-06-10T12:40:40;7.90;;;5.13;;
6825;SDS011;3451;52.476;13.316;2023-06-10T12:43:07;6.75;;;5.53;;
6825;SDS011;3451;52.476;13.316;2023-06-10T12:45:35;7.03;;;5.60;;
6825;SDS011;3451;52.476;13.316;2023-06-10T12:48:21;7.90;;;5.63;;
6825;SDS011;3451;52.476;13.316;2023-06-10T12:50:51;10.53;;;6.30;;
6825;SDS011;3451;52.476;13.316;2023-06-10T12:53:18;7.97;;;5.53;;
6825;SDS011;3451;52.476;13.316;2023-06-10T12:55:45;7.03;;;5.63;;
6825;SDS011;3451;52.476;13.316;2023-06-10T12:58:12;11.48;;;5.93;;
6825;SDS011;3451;52.476;13.316;2023-06-10T13:00:38;6.50;;;5.85;;
6825;SDS011;3451;52.476;13.316;2023-06-10T13:03:05;8.30;;;6.60;;
6825;SDS011;3451;52.476;13.316;2023-06-10T13:05:32;7.40;;;6.47;;
6825;SDS011;3451;52.476;13.316;2023-06-10T13:07:59;9.03;;;6.00;;
6825;SDS011;3451;52.476;13.316;2023-06-10T13:10:25;6.50;;;5.87;;
6825;SDS011;3451;52.476;13.316;2023-06-10T13:12:52;11.90;;;6.63;;
6825;SDS011;3451;52.476;13.316;2023-06-10T13:15:18;10.05;;;6.97;;
6825;SDS011;3451;52.476;13.316;2023-06-10T13:17:45;8.90;;;7.03;;
6825;SDS011;3451;52.476;13.316;2023-06-10T13:20:15;8.65;;;7.10;;
6825;SDS011;3451;52.476;13.316;2023-06-10T13:22:42;12.57;;;7.30;;
6825;SDS011;3451;52.476;13.316;2023-06-10T13:25:08;9.83;;;7.13;;
6825;SDS011;3451;52.476;13.316;2023-06-10T13:27:35;10.15;;;6.78;;
6825;SDS011;3451;52.476;13.316;2023-06-10T13:30:05;12.63;;;6.80;;
6825;SDS011;3451;52.476;13.316;2023-06-10T13:32:32;8.25;;;6.55;;
6825;SDS011;3451;52.476;13.316;2023-06-10T13:34:58;10.25;;;6.80;;
6825;SDS011;3451;52.476;13.316;2023-06-10T13:37:24;8.57;;;6.90;;
6825;SDS011;3451;52.476;13.316;2023-06-10T13:39:51;9.70;;;7.40;;
6825;SDS011;3451;52.476;13.316;2023-06-10T13:42:17;10.70;;;7.00;;
6825;SDS011;3451;52.476;13.316;2023-06-10T13:44:44;9.07;;;6.70;;
6825;SDS011;3451;52.476;13.316;2023-06-10T13:47:10;9.57;;;6.57;;
6825;SDS011;3451;52.476;13.316;2023-06-10T13:49:36;9.83;;;6.80;;
6825;SDS011;3451;52.476;13.316;2023-06-10T13:52:03;10.55;;;6.97;;
6825;SDS011;3451;52.476;13.316;2023-06-10T13:54:29;9.48;;;6.88;;
6825;SDS011;3451;52.476;13.316;2023-06-10T13:56:56;9.40;;;6.68;;
6825;SDS011;3451;52.476;13.316;2023-06-10T13:59:22;7.70;;;6.43;;
6825;SDS011;3451;52.476;13.316;2023-06-10T14:01:48;8.45;;;6.57;;
6825;SDS011;3451;52.476;13.316;2023-06-10T14:04:15;7.85;;;6.68;;
6825;SDS011;3451;52.476;13.316;2023-06-10T14:06:41;9.75;;;6.53;;
6825;SDS011;3451;52.476;13.316;2023-06-10T14:09:08;8.35;;;6.45;;
6825;SDS011;3451;52.476;13.316;2023-06-10T14:11:34;8.85;;;6.78;;
6825;SDS011;3451;52.476;13.316;2023-06-10T14:14:00;7.18;;;6.47;;
6825;SDS011;3451;52.476;13.316;2023-06-10T14:16:27;9.20;;;6.80;;
6825;SDS011;3451;52.476;13.316;2023-06-10T14:18:53;7.78;;;5.97;;
6825;SDS011;3451;52.476;13.316;2023-06-10T14:21:20;9.38;;;6.90;;
6825;SDS011;3451;52.476;13.316;2023-06-10T14:23:46;12.00;;;6.90;;
6825;SDS011;3451;52.476;13.316;2023-06-10T14:26:15;7.18;;;5.85;;
6825;SDS011;3451;52.476;13.316;2023-06-10T14:28:41;7.90;;;6.28;;
6825;SDS011;3451;52.476;13.316;2023-06-10T14:31:07;7.82;;;5.97;;
6825;SDS011;3451;52.476;13.316;2023-06-10T14:33:34;7.38;;;5.80;;
6825;SDS011;3451;52.476;13.316;2023-06-10T14:36:00;7.43;;;5.85;;
6825;SDS011;3451;52.476;13.316;2023-06-10T14:38:27;7.88;;;5.90;;
6825;SDS011;3451;52.476;13.316;2023-06-10T14:40:53;8.10;;;5.75;;
6825;SDS011;3451;52.476;13.316;2023-06-10T14:43:19;8.05;;;6.07;;
6825;SDS011;3451;52.476;13.316;2023-06-10T14:45:46;10.30;;;5.60;;
6825;SDS011;3451;52.476;13.316;2023-06-10T14:48:12;9.38;;;5.88;;
6825;SDS011;3451;52.476;13.316;2023-06-10T14:50:39;7.80;;;5.87;;
6825;SDS011;3451;52.476;13.316;2023-06-10T14:53:07;7.82;;;5.57;;
6825;SDS011;3451;52.476;13.316;2023-06-10T14:55:33;6.97;;;5.60;;
6825;SDS011;3451;52.476;13.316;2023-06-10T14:57:59;7.18;;;6.05;;
6825;SDS011;3451;52.476;13.316;2023-06-10T15:00:26;8.77;;;5.97;;
6825;SDS011;3451;52.476;13.316;2023-06-10T15:02:52;7.38;;;5.72;;
6825;SDS011;3451;52.476;13.316;2023-06-10T15:05:21;9.40;;;5.38;;
6825;SDS011;3451;52.476;13.316;2023-06-10T15:07:48;10.63;;;5.60;;